Time,TemperatureF,DewpointF,PressureIn,WindDirection,WindDirectionDegrees,WindSpeedMPH,WindSpeedGustMPH,Humidity,HourlyPrecipIn,Conditions,Clouds,dailyrainin,SolarRadiationWatts/m^2,SoftwareType,DateUTC
2013-03-28 00:00:00,43.6,41.4,29.98,WNW,293,0.0,-999.0,92,0.00,,,0.00,0,Wunderground v.1.15,2013-03-28 07:00:00,
2013-03-28 00:05:00,43.6,41.4,29.98,WNW,293,0.0,-999.0,92,0.00,,,0.00,0,Wunderground v.1.15,2013-03-28 07:05:00,
2013-03-28 00:10:00,43.6,41.4,29.98,WNW,293,0.0,-999.0,92,0.00,,,0.00,0,Wunderground v.1.15,2013-03-28 07:10:00,
2013-03-28 00:11:00,43.6,42.0,29.98,WNW,300,0.0,0.0,92,0.00,,,0.00,0,weatherlink.com 1.10,2013-03-28 07:11:00,
2013-03-28 00:15:00,43.6,41.4,29.98,WNW,293,0.0,-999.0,92,0.00,,,0.00,0,Wunderground v.1.15,2013-03-28 07:15:00,
2013-03-28 00:20:00,43.6,41.4,29.98,WNW,293,0.0,-999.0,92,0.00,,,0.00,0,Wunderground v.1.15,2013-03-28 07:20:00,
2013-03-28 00:25:00,42.8,41.2,29.98,WNW,293,0.0,-999.0,94,0.00,,,0.00,0,Wunderground v.1.15,2013-03-28 07:25:00,
2013-03-28 00:26:00,42.7,41.0,29.98,WNW,300,0.0,0.0,93,0.00,,,0.00,0,weatherlink.com 1.10,2013-03-28 07:26:00,
2013-03-28 00:30:00,42.8,41.2,29.98,WNW,293,0.0,-999.0,94,0.00,,,0.00,0,Wunderground v.1.15,2013-03-28 07:30:00,
2013-03-28 00:35:00,42.8,41.2,29.98,WNW,293,0.0,-999.0,94,0.00,,,0.00,0,Wunderground v.1.15,2013-03-28 07:35:00,
2013-03-28 00:40:00,42.6,40.7,29.98,WNW,293,0.0,-999.0,93,0.00,,,0.00,0,Wunderground v.1.15,2013-03-28 07:40:00,
2013-03-28 00:41:00,42.6,41.0,29.98,WNW,300,0.0,0.0,93,0.00,,,0.00,0,weatherlink.com 1.10,2013-03-28 07:41:00,
2013-03-28 00:45:00,42.6,40.7,29.98,WNW,293,0.0,-999.0,93,0.00,,,0.00,0,Wunderground v.1.15,2013-03-28 07:45:00,
2013-03-28 00:50:00,42.6,40.7,29.98,WNW,293,0.0,-999.0,93,0.00,,,0.00,0,Wunderground v.1.15,2013-03-28 07:50:00,
2013-03-28 00:55:00,42.3,40.4,29.98,WNW,293,0.0,-999.0,93,0.00,,,0.00,0,Wunderground v.1.15,2013-03-28 07:55:00,
2013-03-28 00:56:00,42.3,41.0,29.98,WNW,283,0.0,1.0,93,0.00,,,0.00,0,weatherlink.com 1.10,2013-03-28 07:56:00,
2013-03-28 01:00:00,42.3,40.4,29.98,WNW,293,0.0,-999.0,93,0.00,,,0.00,0,Wunderground v.1.15,2013-03-28 08:00:00,
2013-03-28 01:05:00,42.3,40.4,29.98,WNW,293,0.0,-999.0,93,0.00,,,0.00,0,Wunderground v.1.15,2013-03-28 08:05:00,
2013-03-28 01:10:00,42.0,40.4,29.98,N/A,-737280,0.0,-999.0,94,0.00,,,0.00,0,Wunderground v.1.15,2013-03-28 08:10:00,
2013-03-28 01:11:00,41.9,40.0,29.98,WNW,283,0.0,0.0,94,0.00,,,0.00,0,weatherlink.com 1.10,2013-03-28 08:11:00,
2013-03-28 01:15:00,42.0,40.4,29.98,N/A,-737280,0.0,-999.0,94,0.00,,,0.00,0,Wunderground v.1.15,2013-03-28 08:15:00,
2013-03-28 01:20:00,42.0,40.4,29.98,N/A,-737280,0.0,-999.0,94,0.00,,,0.00,0,Wunderground v.1.15,2013-03-28 08:20:00,
2013-03-28 01:25:00,41.6,40.0,29.99,WNW,293,0.0,-999.0,94,0.00,,,0.00,0,Wunderground v.1.15,2013-03-28 08:25:00,
2013-03-28 01:26:00,41.6,40.0,29.98,WNW,283,0.0,1.0,94,0.00,,,0.00,0,weatherlink.com 1.10,2013-03-28 08:26:00,
2013-03-28 01:30:00,41.6,40.0,29.99,WNW,293,0.0,-999.0,94,0.00,,,0.00,0,Wunderground v.1.15,2013-03-28 08:30:00,
2013-03-28 01:35:00,41.6,40.0,29.99,WNW,293,0.0,-999.0,94,0.00,,,0.00,0,Wunderground v.1.15,2013-03-28 08:35:00,
2013-03-28 01:40:00,41.2,39.6,29.99,N/A,-737280,0.0,-999.0,94,0.00,,,0.00,0,Wunderground v.1.15,2013-03-28 08:40:00,
2013-03-28 01:41:00,41.1,40.0,29.98,WNW,283,0.0,0.0,94,0.00,,,0.00,0,weatherlink.com 1.10,2013-03-28 08:41:00,
2013-03-28 01:45:00,41.2,39.6,29.99,N/A,-737280,0.0,-999.0,94,0.00,,,0.00,0,Wunderground v.1.15,2013-03-28 08:45:00,
2013-03-28 01:50:00,41.2,39.6,29.99,N/A,-737280,0.0,-999.0,94,0.00,,,0.00,0,Wunderground v.1.15,2013-03-28 08:50:00,
2013-03-28 01:55:00,40.7,39.1,29.99,N/A,-737280,0.0,-999.0,94,0.00,,,0.00,0,Wunderground v.1.15,2013-03-28 08:55:00,
2013-03-28 01:56:00,40.6,39.0,29.99,WNW,283,0.0,0.0,94,0.00,,,0.00,0,weatherlink.com 1.10,2013-03-28 08:56:00,
2013-03-28 02:00:00,40.7,39.1,29.99,N/A,-737280,0.0,-999.0,94,0.00,,,0.00,0,Wunderground v.1.15,2013-03-28 09:00:00,
2013-03-28 02:05:00,40.7,39.1,29.99,N/A,-737280,0.0,-999.0,94,0.00,,,0.00,0,Wunderground v.1.15,2013-03-28 09:05:00,
2013-03-28 02:10:00,40.2,38.6,30.00,N/A,-737280,0.0,-999.0,94,0.00,,,0.00,0,Wunderground v.1.15,2013-03-28 09:10:00,
2013-03-28 02:11:00,40.1,39.0,29.98,WNW,283,0.0,0.0,94,0.00,,,0.00,0,weatherlink.com 1.10,2013-03-28 09:11:00,
2013-03-28 02:15:00,40.2,38.6,30.00,N/A,-737280,0.0,-999.0,94,0.00,,,0.00,0,Wunderground v.1.15,2013-03-28 09:15:00,
2013-03-28 02:20:00,40.2,38.6,30.00,N/A,-737280,0.0,-999.0,94,0.00,,,0.00,0,Wunderground v.1.15,2013-03-28 09:20:00,
2013-03-28 02:25:00,39.8,38.5,30.00,N/A,-737280,0.0,-999.0,95,0.00,,,0.00,0,Wunderground v.1.15,2013-03-28 09:25:00,
2013-03-28 02:30:00,39.8,38.5,30.00,N/A,-737280,0.0,-999.0,95,0.00,,,0.00,0,Wunderground v.1.15,2013-03-28 09:30:00,
2013-03-28 02:35:00,39.8,38.5,30.00,N/A,-737280,0.0,-999.0,95,0.00,,,0.00,0,Wunderground v.1.15,2013-03-28 09:35:00,
2013-03-28 02:40:00,39.6,38.3,29.99,WNW,293,0.0,-999.0,95,0.00,,,0.00,0,Wunderground v.1.15,2013-03-28 09:40:00,
2013-03-28 02:41:00,39.5,38.0,30.00,WNW,283,0.0,2.0,95,0.00,,,0.00,0,weatherlink.com 1.10,2013-03-28 09:41:00,
2013-03-28 02:45:00,39.6,38.3,29.99,WNW,293,0.0,-999.0,95,0.00,,,0.00,0,Wunderground v.1.15,2013-03-28 09:45:00,
2013-03-28 02:50:00,39.6,38.3,29.99,WNW,293,0.0,-999.0,95,0.00,,,0.00,0,Wunderground v.1.15,2013-03-28 09:50:00,
2013-03-28 02:55:00,39.3,38.0,30.00,WNW,293,0.0,-999.0,95,0.00,,,0.00,0,Wunderground v.1.15,2013-03-28 09:55:00,
2013-03-28 03:00:00,39.3,38.0,30.00,WNW,293,0.0,-999.0,95,0.00,,,0.00,0,Wunderground v.1.15,2013-03-28 10:00:00,
2013-03-28 03:05:00,39.3,38.0,30.00,WNW,293,0.0,-999.0,95,0.00,,,0.00,0,Wunderground v.1.15,2013-03-28 10:05:00,
2013-03-28 03:10:00,39.1,37.8,29.99,N/A,-737280,0.0,-999.0,95,0.00,,,0.00,0,Wunderground v.1.15,2013-03-28 10:10:00,
2013-03-28 03:11:00,39.1,38.0,30.00,WNW,283,0.0,0.0,95,0.00,,,0.00,0,weatherlink.com 1.10,2013-03-28 10:11:00,
2013-03-28 03:15:00,39.1,37.8,29.99,N/A,-737280,0.0,-999.0,95,0.00,,,0.00,0,Wunderground v.1.15,2013-03-28 10:15:00,
2013-03-28 03:20:00,39.1,37.8,29.99,N/A,-737280,0.0,-999.0,95,0.00,,,0.00,0,Wunderground v.1.15,2013-03-28 10:20:00,
2013-03-28 03:25:00,39.2,38.2,30.00,N/A,-737280,0.0,-999.0,96,0.00,,,0.00,0,Wunderground v.1.15,2013-03-28 10:25:00,
2013-03-28 03:26:00,39.3,38.0,29.99,WNW,283,0.0,0.0,96,0.00,,,0.00,0,weatherlink.com 1.10,2013-03-28 10:26:00,
2013-03-28 03:30:00,39.2,38.2,30.00,N/A,-737280,0.0,-999.0,96,0.00,,,0.00,0,Wunderground v.1.15,2013-03-28 10:30:00,
2013-03-28 03:35:00,39.2,38.2,30.00,N/A,-737280,0.0,-999.0,96,0.00,,,0.00,0,Wunderground v.1.15,2013-03-28 10:35:00,
2013-03-28 03:40:00,39.2,38.2,30.00,N/A,-737280,0.0,-999.0,96,0.00,,,0.00,0,Wunderground v.1.15,2013-03-28 10:40:00,
2013-03-28 03:41:00,39.2,38.0,30.00,WNW,283,0.0,0.0,96,0.00,,,0.00,0,weatherlink.com 1.10,2013-03-28 10:41:00,
2013-03-28 03:45:00,39.2,38.2,30.00,N/A,-737280,0.0,-999.0,96,0.00,,,0.00,0,Wunderground v.1.15,2013-03-28 10:45:00,
2013-03-28 03:50:00,39.2,38.2,30.00,N/A,-737280,0.0,-999.0,96,0.00,,,0.00,0,Wunderground v.1.15,2013-03-28 10:50:00,
2013-03-28 03:55:00,39.4,38.4,30.00,South,180,0.0,-999.0,96,0.00,,,0.00,0,Wunderground v.1.15,2013-03-28 10:55:00,
2013-03-28 03:56:00,39.5,39.0,30.00,SSE,163,0.0,1.0,96,0.00,,,0.00,0,weatherlink.com 1.10,2013-03-28 10:56:00,
2013-03-28 04:00:00,39.4,38.4,30.00,South,180,0.0,-999.0,96,0.00,,,0.00,0,Wunderground v.1.15,2013-03-28 11:00:00,
2013-03-28 04:05:00,39.4,38.4,30.00,South,180,0.0,-999.0,96,0.00,,,0.00,0,Wunderground v.1.15,2013-03-28 11:05:00,
2013-03-28 04:10:00,39.3,38.3,30.00,SSE,158,0.0,-999.0,96,0.00,,,0.00,0,Wunderground v.1.15,2013-03-28 11:10:00,
2013-03-28 04:11:00,39.2,38.0,30.00,SSE,161,0.0,2.0,96,0.00,,,0.00,0,weatherlink.com 1.10,2013-03-28 11:11:00,
2013-03-28 04:15:00,39.3,38.3,30.00,SSE,158,0.0,-999.0,96,0.00,,,0.00,0,Wunderground v.1.15,2013-03-28 11:15:00,
2013-03-28 04:20:00,39.3,38.3,30.00,SSE,158,0.0,-999.0,96,0.00,,,0.00,0,Wunderground v.1.15,2013-03-28 11:20:00,
2013-03-28 04:25:00,39.2,38.2,30.00,SE,135,0.0,-999.0,96,0.00,,,0.00,0,Wunderground v.1.15,2013-03-28 11:25:00,
2013-03-28 04:26:00,39.2,38.0,30.00,SE,144,0.0,0.0,96,0.00,,,0.00,0,weatherlink.com 1.10,2013-03-28 11:26:00,
2013-03-28 04:30:00,39.2,38.2,30.00,SE,135,0.0,-999.0,96,0.00,,,0.00,0,Wunderground v.1.15,2013-03-28 11:30:00,
2013-03-28 04:35:00,39.2,38.2,30.00,SE,135,0.0,-999.0,96,0.00,,,0.00,0,Wunderground v.1.15,2013-03-28 11:35:00,
2013-03-28 04:40:00,39.2,38.2,30.00,N/A,-737280,0.0,-999.0,96,0.00,,,0.00,0,Wunderground v.1.15,2013-03-28 11:40:00,
2013-03-28 04:41:00,39.1,38.0,30.00,SE,144,0.0,0.0,96,0.00,,,0.00,0,weatherlink.com 1.10,2013-03-28 11:41:00,
2013-03-28 04:45:00,39.2,38.2,30.00,N/A,-737280,0.0,-999.0,96,0.00,,,0.00,0,Wunderground v.1.15,2013-03-28 11:45:00,
2013-03-28 04:50:00,39.2,38.2,30.00,N/A,-737280,0.0,-999.0,96,0.00,,,0.00,0,Wunderground v.1.15,2013-03-28 11:50:00,
2013-03-28 04:55:00,39.3,38.3,30.00,SE,135,0.0,-999.0,96,0.00,,,0.00,0,Wunderground v.1.15,2013-03-28 11:55:00,
2013-03-28 04:56:00,39.5,39.0,30.00,SE,144,0.0,1.0,96,0.00,,,0.00,0,weatherlink.com 1.10,2013-03-28 11:56:00,
2013-03-28 05:00:00,39.3,38.3,30.00,SE,135,0.0,-999.0,96,0.00,,,0.00,0,Wunderground v.1.15,2013-03-28 12:00:00,
2013-03-28 05:05:00,39.3,38.3,30.00,SE,135,0.0,-999.0,96,0.00,,,0.00,0,Wunderground v.1.15,2013-03-28 12:05:00,
2013-03-28 05:10:00,39.6,38.6,30.00,N/A,-737280,0.0,-999.0,96,0.00,,,0.00,0,Wunderground v.1.15,2013-03-28 12:10:00,
2013-03-28 05:11:00,39.6,39.0,30.00,SE,144,0.0,0.0,96,0.00,,,0.00,0,weatherlink.com 1.10,2013-03-28 12:11:00,
2013-03-28 05:15:00,39.6,38.6,30.00,N/A,-737280,0.0,-999.0,96,0.00,,,0.00,0,Wunderground v.1.15,2013-03-28 12:15:00,
2013-03-28 05:20:00,39.6,38.6,30.00,N/A,-737280,0.0,-999.0,96,0.00,,,0.00,0,Wunderground v.1.15,2013-03-28 12:20:00,
2013-03-28 05:25:00,39.7,38.7,30.01,N/A,-737280,0.0,-999.0,96,0.00,,,0.00,0,Wunderground v.1.15,2013-03-28 12:25:00,
2013-03-28 05:26:00,39.7,39.0,30.00,SE,144,0.0,0.0,96,0.00,,,0.00,0,weatherlink.com 1.10,2013-03-28 12:26:00,
2013-03-28 05:30:00,39.7,38.7,30.01,N/A,-737280,0.0,-999.0,96,0.00,,,0.00,0,Wunderground v.1.15,2013-03-28 12:30:00,
2013-03-28 05:35:00,39.7,38.7,30.01,N/A,-737280,0.0,-999.0,96,0.00,,,0.00,0,Wunderground v.1.15,2013-03-28 12:35:00,
2013-03-28 05:40:00,39.6,38.6,30.01,SE,135,0.0,-999.0,96,0.00,,,0.00,0,Wunderground v.1.15,2013-03-28 12:40:00,
2013-03-28 05:41:00,39.7,39.0,30.01,SE,144,0.0,0.0,96,0.00,,,0.00,0,weatherlink.com 1.10,2013-03-28 12:41:00,
2013-03-28 05:45:00,39.6,38.6,30.01,SE,135,0.0,-999.0,96,0.00,,,0.00,0,Wunderground v.1.15,2013-03-28 12:45:00,
2013-03-28 05:50:00,39.6,38.6,30.01,SE,135,0.0,-999.0,96,0.00,,,0.00,0,Wunderground v.1.15,2013-03-28 12:50:00,
2013-03-28 05:55:00,39.8,38.8,30.02,SE,135,0.0,-999.0,96,0.00,,,0.00,0,Wunderground v.1.15,2013-03-28 12:55:00,
2013-03-28 05:56:00,39.8,39.0,30.02,SE,144,0.0,0.0,96,0.00,,,0.00,0,weatherlink.com 1.10,2013-03-28 12:56:00,
2013-03-28 06:00:00,39.8,38.8,30.02,SE,135,0.0,-999.0,96,0.00,,,0.00,0,Wunderground v.1.15,2013-03-28 13:00:00,
2013-03-28 06:05:00,39.8,38.8,30.02,SE,135,0.0,-999.0,96,0.00,,,0.00,0,Wunderground v.1.15,2013-03-28 13:05:00,
2013-03-28 06:10:00,39.6,38.6,30.03,N/A,-737280,0.0,-999.0,96,0.00,,,0.00,0,Wunderground v.1.15,2013-03-28 13:10:00,
2013-03-28 06:11:00,39.5,39.0,30.02,SE,144,0.0,0.0,96,0.00,,,0.00,0,weatherlink.com 1.10,2013-03-28 13:11:00,
2013-03-28 06:15:00,39.6,38.6,30.03,N/A,-737280,0.0,-999.0,96,0.00,,,0.00,0,Wunderground v.1.15,2013-03-28 13:15:00,
2013-03-28 06:20:00,39.6,38.6,30.03,N/A,-737280,0.0,-999.0,96,0.00,,,0.00,0,Wunderground v.1.15,2013-03-28 13:20:00,
2013-03-28 06:25:00,39.4,38.4,30.03,SE,135,0.0,-999.0,96,0.00,,,0.00,0,Wunderground v.1.15,2013-03-28 13:25:00,
2013-03-28 06:26:00,39.4,38.0,30.03,SE,144,0.0,0.0,96,0.00,,,0.00,0,weatherlink.com 1.10,2013-03-28 13:26:00,
2013-03-28 06:30:00,39.4,38.4,30.03,SE,135,0.0,-999.0,96,0.00,,,0.00,0,Wunderground v.1.15,2013-03-28 13:30:00,
2013-03-28 06:35:00,39.4,38.4,30.03,SE,135,0.0,-999.0,96,0.00,,,0.00,0,Wunderground v.1.15,2013-03-28 13:35:00,
2013-03-28 06:40:00,39.6,38.6,30.03,N/A,-737280,0.0,-999.0,96,0.00,,,0.00,0,Wunderground v.1.15,2013-03-28 13:40:00,
2013-03-28 06:41:00,39.6,39.0,30.03,SE,144,0.0,0.0,96,0.00,,,0.00,0,weatherlink.com 1.10,2013-03-28 13:41:00,
2013-03-28 06:45:00,39.6,38.6,30.03,N/A,-737280,0.0,-999.0,96,0.00,,,0.00,0,Wunderground v.1.15,2013-03-28 13:45:00,
2013-03-28 06:50:00,39.6,38.6,30.03,N/A,-737280,0.0,-999.0,96,0.00,,,0.00,0,Wunderground v.1.15,2013-03-28 13:50:00,
2013-03-28 06:55:00,39.8,39.0,30.04,N/A,-737280,0.0,-999.0,97,0.00,,,0.00,2,Wunderground v.1.15,2013-03-28 13:55:00,
2013-03-28 06:56:00,39.8,39.0,30.03,SE,144,0.0,0.0,96,0.00,,,0.00,5,weatherlink.com 1.10,2013-03-28 13:56:00,
2013-03-28 07:00:00,39.8,39.0,30.04,N/A,-737280,0.0,-999.0,97,0.00,,,0.00,2,Wunderground v.1.15,2013-03-28 14:00:00,
2013-03-28 07:05:00,39.8,39.0,30.04,N/A,-737280,0.0,-999.0,97,0.00,,,0.00,2,Wunderground v.1.15,2013-03-28 14:05:00,
2013-03-28 07:10:00,40.0,39.2,30.05,N/A,-737280,0.0,-999.0,97,0.00,,,0.00,19,Wunderground v.1.15,2013-03-28 14:10:00,
2013-03-28 07:11:00,40.0,39.0,30.04,SE,144,0.0,0.0,97,0.00,,,0.00,23,weatherlink.com 1.10,2013-03-28 14:11:00,
2013-03-28 07:15:00,40.0,39.2,30.05,N/A,-737280,0.0,-999.0,97,0.00,,,0.00,19,Wunderground v.1.15,2013-03-28 14:15:00,
2013-03-28 07:20:00,40.0,39.2,30.05,N/A,-737280,0.0,-999.0,97,0.00,,,0.00,19,Wunderground v.1.15,2013-03-28 14:20:00,
2013-03-28 07:25:00,40.2,39.4,30.05,N/A,-737280,0.0,-999.0,97,0.00,,,0.00,37,Wunderground v.1.15,2013-03-28 14:25:00,
2013-03-28 07:26:00,40.3,40.0,30.05,SE,144,0.0,0.0,97,0.00,,,0.00,42,weatherlink.com 1.10,2013-03-28 14:26:00,
2013-03-28 07:30:00,40.2,39.4,30.05,N/A,-737280,0.0,-999.0,97,0.00,,,0.00,37,Wunderground v.1.15,2013-03-28 14:30:00,
2013-03-28 07:35:00,40.2,39.4,30.05,N/A,-737280,0.0,-999.0,97,0.00,,,0.00,37,Wunderground v.1.15,2013-03-28 14:35:00,
2013-03-28 07:40:00,40.6,39.8,30.05,N/A,-737280,0.0,-999.0,97,0.00,,,0.00,49,Wunderground v.1.15,2013-03-28 14:40:00,
2013-03-28 07:42:00,40.7,40.0,30.05,SE,144,0.0,0.0,97,0.00,,,0.00,46,weatherlink.com 1.10,2013-03-28 14:42:00,
2013-03-28 07:45:00,40.6,39.8,30.05,N/A,-737280,0.0,-999.0,97,0.00,,,0.00,49,Wunderground v.1.15,2013-03-28 14:45:00,
2013-03-28 07:50:00,40.6,39.8,30.05,N/A,-737280,0.0,-999.0,97,0.00,,,0.00,49,Wunderground v.1.15,2013-03-28 14:50:00,
2013-03-28 07:55:00,41.1,40.3,30.05,N/A,-737280,0.0,-999.0,97,0.00,,,0.00,61,Wunderground v.1.15,2013-03-28 14:55:00,
2013-03-28 08:00:00,41.1,40.3,30.05,N/A,-737280,0.0,-999.0,97,0.00,,,0.00,61,Wunderground v.1.15,2013-03-28 15:00:00,
2013-03-28 08:05:00,41.1,40.3,30.05,N/A,-737280,0.0,-999.0,97,0.00,,,0.00,61,Wunderground v.1.15,2013-03-28 15:05:00,
2013-03-28 08:10:00,42.0,41.2,30.05,N/A,-737280,0.0,-999.0,97,0.00,,,0.00,131,Wunderground v.1.15,2013-03-28 15:10:00,
2013-03-28 08:12:00,42.3,42.0,30.05,SE,144,0.0,0.0,97,0.00,,,0.00,146,weatherlink.com 1.10,2013-03-28 15:12:00,
2013-03-28 08:15:00,42.0,41.2,30.05,N/A,-737280,0.0,-999.0,97,0.00,,,0.00,131,Wunderground v.1.15,2013-03-28 15:15:00,
2013-03-28 08:20:00,42.0,41.2,30.05,N/A,-737280,0.0,-999.0,97,0.00,,,0.00,131,Wunderground v.1.15,2013-03-28 15:20:00,
2013-03-28 08:25:00,43.6,42.8,30.06,SE,135,0.0,-999.0,97,0.00,,,0.00,133,Wunderground v.1.15,2013-03-28 15:25:00,
2013-03-28 08:27:00,44.0,43.0,30.05,SE,144,0.0,1.0,97,0.00,,,0.00,134,weatherlink.com 1.10,2013-03-28 15:27:00,
2013-03-28 08:30:00,43.6,42.8,30.06,SE,135,0.0,-999.0,97,0.00,,,0.00,133,Wunderground v.1.15,2013-03-28 15:30:00,
2013-03-28 08:35:00,43.6,42.8,30.06,SE,135,0.0,-999.0,97,0.00,,,0.00,133,Wunderground v.1.15,2013-03-28 15:35:00,
2013-03-28 08:40:00,44.6,43.3,30.06,SSE,158,0.0,-999.0,95,0.00,,,0.00,121,Wunderground v.1.15,2013-03-28 15:40:00,
2013-03-28 08:42:00,44.6,43.0,30.05,SSE,147,0.0,1.0,95,0.00,,,0.00,114,weatherlink.com 1.10,2013-03-28 15:42:00,
2013-03-28 08:45:00,44.6,43.3,30.06,SSE,158,0.0,-999.0,95,0.00,,,0.00,121,Wunderground v.1.15,2013-03-28 15:45:00,
2013-03-28 08:50:00,44.6,43.3,30.06,SSE,158,0.0,-999.0,95,0.00,,,0.00,121,Wunderground v.1.15,2013-03-28 15:50:00,
2013-03-28 08:55:00,45.0,43.7,30.06,N/A,-737280,0.0,-999.0,95,0.00,,,0.00,123,Wunderground v.1.15,2013-03-28 15:55:00,
2013-03-28 08:57:00,45.1,44.0,30.06,SSE,147,0.0,0.0,95,0.00,,,0.00,123,weatherlink.com 1.10,2013-03-28 15:57:00,
2013-03-28 09:00:00,45.0,43.7,30.06,N/A,-737280,0.0,-999.0,95,0.00,,,0.00,123,Wunderground v.1.15,2013-03-28 16:00:00,
2013-03-28 09:05:00,45.0,43.7,30.06,N/A,-737280,0.0,-999.0,95,0.00,,,0.00,123,Wunderground v.1.15,2013-03-28 16:05:00,
2013-03-28 09:10:00,45.8,44.2,30.06,N/A,-737280,0.0,-999.0,94,0.00,,,0.00,167,Wunderground v.1.15,2013-03-28 16:10:00,
2013-03-28 09:15:00,45.8,44.2,30.06,N/A,-737280,0.0,-999.0,94,0.00,,,0.00,167,Wunderground v.1.15,2013-03-28 16:15:00,
2013-03-28 09:20:00,45.8,44.2,30.06,N/A,-737280,0.0,-999.0,94,0.00,,,0.00,167,Wunderground v.1.15,2013-03-28 16:20:00,
2013-03-28 09:25:00,46.7,44.2,30.06,SSE,158,0.0,-999.0,91,0.00,,,0.00,176,Wunderground v.1.15,2013-03-28 16:25:00,
2013-03-28 09:27:00,46.8,44.0,30.06,SSE,147,0.0,1.0,91,0.00,,,0.00,165,weatherlink.com 1.10,2013-03-28 16:27:00,
2013-03-28 09:30:00,46.7,44.2,30.06,SSE,158,0.0,-999.0,91,0.00,,,0.00,176,Wunderground v.1.15,2013-03-28 16:30:00,
2013-03-28 09:35:00,46.7,44.2,30.06,SSE,158,0.0,-999.0,91,0.00,,,0.00,176,Wunderground v.1.15,2013-03-28 16:35:00,
2013-03-28 09:40:00,47.2,44.4,30.07,SSE,158,0.0,-999.0,90,0.00,,,0.00,159,Wunderground v.1.15,2013-03-28 16:40:00,
2013-03-28 09:42:00,47.2,44.0,30.06,SSE,148,0.0,2.0,89,0.00,,,0.00,165,weatherlink.com 1.10,2013-03-28 16:42:00,
2013-03-28 09:45:00,47.2,44.4,30.07,SSE,158,0.0,-999.0,90,0.00,,,0.00,159,Wunderground v.1.15,2013-03-28 16:45:00,
2013-03-28 09:50:00,47.2,44.4,30.07,SSE,158,0.0,-999.0,90,0.00,,,0.00,159,Wunderground v.1.15,2013-03-28 16:50:00,
2013-03-28 09:55:00,47.7,44.3,30.07,WSW,248,0.0,-999.0,88,0.00,,,0.00,190,Wunderground v.1.15,2013-03-28 16:55:00,
2013-03-28 09:57:00,47.8,45.0,30.07,WSW,252,0.0,2.0,89,0.00,,,0.00,186,weatherlink.com 1.10,2013-03-28 16:57:00,
2013-03-28 10:00:00,47.7,44.3,30.07,WSW,248,0.0,-999.0,88,0.00,,,0.00,190,Wunderground v.1.15,2013-03-28 17:00:00,
2013-03-28 10:05:00,47.7,44.3,30.07,WSW,248,0.0,-999.0,88,0.00,,,0.00,190,Wunderground v.1.15,2013-03-28 17:05:00,
2013-03-28 10:10:00,48.4,44.7,30.08,SW,225,0.0,-999.0,87,0.00,,,0.00,207,Wunderground v.1.15,2013-03-28 17:10:00,
2013-03-28 10:12:00,48.6,45.0,30.07,SW,233,0.0,2.0,87,0.00,,,0.00,216,weatherlink.com 1.10,2013-03-28 17:12:00,
2013-03-28 10:15:00,48.4,44.7,30.08,SW,225,0.0,-999.0,87,0.00,,,0.00,207,Wunderground v.1.15,2013-03-28 17:15:00,
2013-03-28 10:20:00,48.4,44.7,30.08,SW,225,0.0,-999.0,87,0.00,,,0.00,207,Wunderground v.1.15,2013-03-28 17:20:00,
2013-03-28 10:25:00,49.4,45.4,30.08,SW,225,0.0,-999.0,86,0.00,,,0.00,244,Wunderground v.1.15,2013-03-28 17:25:00,
2013-03-28 10:27:00,49.6,46.0,30.08,SW,233,0.0,2.0,86,0.00,,,0.00,248,weatherlink.com 1.10,2013-03-28 17:27:00,
2013-03-28 10:30:00,49.4,45.4,30.08,SW,225,0.0,-999.0,86,0.00,,,0.00,244,Wunderground v.1.15,2013-03-28 17:30:00,
2013-03-28 10:35:00,49.4,45.4,30.08,SW,225,0.0,-999.0,86,0.00,,,0.00,244,Wunderground v.1.15,2013-03-28 17:35:00,
2013-03-28 10:40:00,50.4,45.4,30.08,WSW,248,0.0,-999.0,83,0.00,,,0.00,255,Wunderground v.1.15,2013-03-28 17:40:00,
2013-03-28 10:42:00,50.7,46.0,30.08,WSW,254,1.0,2.0,85,0.00,,,0.00,243,weatherlink.com 1.10,2013-03-28 17:42:00,
2013-03-28 10:45:00,50.4,45.4,30.08,WSW,248,0.0,-999.0,83,0.00,,,0.00,255,Wunderground v.1.15,2013-03-28 17:45:00,
2013-03-28 10:50:00,50.4,45.4,30.08,WSW,248,0.0,-999.0,83,0.00,,,0.00,255,Wunderground v.1.15,2013-03-28 17:50:00,
2013-03-28 10:55:00,51.3,45.7,30.08,South,180,0.0,-999.0,81,0.00,,,0.00,247,Wunderground v.1.15,2013-03-28 17:55:00,
2013-03-28 10:57:00,51.5,46.0,30.08,South,188,0.0,1.0,82,0.00,,,0.00,227,weatherlink.com 1.10,2013-03-28 17:57:00,
2013-03-28 11:00:00,51.3,45.7,30.08,South,180,0.0,-999.0,81,0.00,,,0.00,247,Wunderground v.1.15,2013-03-28 18:00:00,
2013-03-28 11:05:00,51.3,45.7,30.08,South,180,0.0,-999.0,81,0.00,,,0.00,247,Wunderground v.1.15,2013-03-28 18:05:00,
2013-03-28 11:10:00,52.2,46.5,30.08,South,180,0.0,-999.0,81,0.00,,,0.00,225,Wunderground v.1.15,2013-03-28 18:10:00,
2013-03-28 11:12:00,52.4,46.0,30.08,South,174,0.0,1.0,80,0.00,,,0.00,218,weatherlink.com 1.10,2013-03-28 18:12:00,
2013-03-28 11:15:00,52.2,46.5,30.08,South,180,0.0,-999.0,81,0.00,,,0.00,225,Wunderground v.1.15,2013-03-28 18:15:00,
2013-03-28 11:20:00,52.2,46.5,30.08,South,180,0.0,-999.0,81,0.00,,,0.00,225,Wunderground v.1.15,2013-03-28 18:20:00,
2013-03-28 11:25:00,52.7,46.7,30.08,South,180,0.0,-999.0,80,0.00,,,0.00,290,Wunderground v.1.15,2013-03-28 18:25:00,
2013-03-28 11:27:00,52.8,47.0,30.08,South,179,0.0,2.0,81,0.00,,,0.00,308,weatherlink.com 1.10,2013-03-28 18:27:00,
2013-03-28 11:30:00,52.7,46.7,30.08,South,180,0.0,-999.0,80,0.00,,,0.00,290,Wunderground v.1.15,2013-03-28 18:30:00,
2013-03-28 11:35:00,52.7,46.7,30.08,South,180,0.0,-999.0,80,0.00,,,0.00,290,Wunderground v.1.15,2013-03-28 18:35:00,
2013-03-28 11:40:00,52.8,47.1,30.08,South,180,0.0,-999.0,81,0.00,,,0.00,412,Wunderground v.1.15,2013-03-28 18:40:00,
2013-03-28 11:42:00,53.0,47.0,30.08,South,188,0.0,2.0,80,0.00,,,0.00,617,weatherlink.com 1.10,2013-03-28 18:42:00,
2013-03-28 11:45:00,52.8,47.1,30.08,South,180,0.0,-999.0,81,0.00,,,0.00,412,Wunderground v.1.15,2013-03-28 18:45:00,
2013-03-28 11:50:00,52.8,47.1,30.08,South,180,0.0,-999.0,81,0.00,,,0.00,412,Wunderground v.1.15,2013-03-28 18:50:00,
2013-03-28 11:55:00,54.5,47.1,30.08,SW,225,1.0,-999.0,76,0.00,,,0.00,668,Wunderground v.1.15,2013-03-28 18:55:00,
2013-03-28 11:57:00,55.1,48.0,30.08,East,98,0.0,4.0,76,0.00,,,0.00,656,weatherlink.com 1.10,2013-03-28 18:57:00,
2013-03-28 12:00:00,54.5,47.1,30.08,SW,225,1.0,-999.0,76,0.00,,,0.00,668,Wunderground v.1.15,2013-03-28 19:00:00,
2013-03-28 12:05:00,54.5,47.1,30.08,SW,225,1.0,-999.0,76,0.00,,,0.00,668,Wunderground v.1.15,2013-03-28 19:05:00,
2013-03-28 12:10:00,56.5,48.3,30.08,South,180,1.0,-999.0,74,0.00,,,0.00,677,Wunderground v.1.15,2013-03-28 19:10:00,
2013-03-28 12:12:00,56.9,48.0,30.08,South,178,0.0,3.0,72,0.00,,,0.00,686,weatherlink.com 1.10,2013-03-28 19:12:00,
2013-03-28 12:15:00,56.5,48.3,30.08,South,180,1.0,-999.0,74,0.00,,,0.00,677,Wunderground v.1.15,2013-03-28 19:15:00,
2013-03-28 12:20:00,56.5,48.3,30.08,South,180,1.0,-999.0,74,0.00,,,0.00,677,Wunderground v.1.15,2013-03-28 19:20:00,
2013-03-28 12:25:00,57.6,48.3,30.07,WNW,293,2.0,-999.0,71,0.00,,,0.00,707,Wunderground v.1.15,2013-03-28 19:25:00,
2013-03-28 12:27:00,57.6,48.0,30.08,WSW,240,1.0,5.0,70,0.00,,,0.00,715,weatherlink.com 1.10,2013-03-28 19:27:00,
2013-03-28 12:30:00,57.6,48.3,30.07,WNW,293,2.0,-999.0,71,0.00,,,0.00,707,Wunderground v.1.15,2013-03-28 19:30:00,
2013-03-28 12:35:00,57.6,48.3,30.07,WNW,293,2.0,-999.0,71,0.00,,,0.00,707,Wunderground v.1.15,2013-03-28 19:35:00,
2013-03-28 12:40:00,58.6,48.5,30.07,WSW,248,1.0,-999.0,69,0.00,,,0.00,731,Wunderground v.1.15,2013-03-28 19:40:00,
2013-03-28 12:43:00,59.1,48.0,30.07,South,175,1.0,4.0,68,0.00,,,0.00,740,weatherlink.com 1.10,2013-03-28 19:43:00,
2013-03-28 12:45:00,58.6,48.5,30.07,WSW,248,1.0,-999.0,69,0.00,,,0.00,731,Wunderground v.1.15,2013-03-28 19:45:00,
2013-03-28 12:50:00,58.6,48.5,30.07,WSW,248,1.0,-999.0,69,0.00,,,0.00,731,Wunderground v.1.15,2013-03-28 19:50:00,
2013-03-28 12:55:00,59.8,48.4,30.06,West,270,2.0,-999.0,66,0.00,,,0.00,761,Wunderground v.1.15,2013-03-28 19:55:00,
2013-03-28 12:58:00,59.8,47.0,30.07,NW,309,1.0,5.0,64,0.00,,,0.00,791,weatherlink.com 1.10,2013-03-28 19:58:00,
2013-03-28 13:00:00,59.8,48.4,30.06,West,270,2.0,-999.0,66,0.00,,,0.00,761,Wunderground v.1.15,2013-03-28 20:00:00,
2013-03-28 13:05:00,59.8,48.4,30.06,West,270,2.0,-999.0,66,0.00,,,0.00,761,Wunderground v.1.15,2013-03-28 20:05:00,
2013-03-28 13:10:00,60.1,46.6,30.06,WSW,248,2.0,-999.0,61,0.00,,,0.00,756,Wunderground v.1.15,2013-03-28 20:10:00,
2013-03-28 13:13:00,60.1,47.0,30.06,South,180,0.0,6.0,63,0.00,,,0.00,840,weatherlink.com 1.10,2013-03-28 20:13:00,
2013-03-28 13:15:00,60.1,46.6,30.06,WSW,248,2.0,-999.0,61,0.00,,,0.00,756,Wunderground v.1.15,2013-03-28 20:15:00,
2013-03-28 13:20:00,60.1,46.6,30.06,WSW,248,2.0,-999.0,61,0.00,,,0.00,756,Wunderground v.1.15,2013-03-28 20:20:00,
2013-03-28 13:25:00,61.1,47.1,30.06,South,180,1.0,-999.0,60,0.00,,,0.00,488,Wunderground v.1.15,2013-03-28 20:25:00,
2013-03-28 13:28:00,61.4,47.0,30.06,SE,145,0.0,5.0,59,0.00,,,0.00,355,weatherlink.com 1.10,2013-03-28 20:28:00,
2013-03-28 13:30:00,61.1,47.1,30.06,South,180,1.0,-999.0,60,0.00,,,0.00,488,Wunderground v.1.15,2013-03-28 20:30:00,
2013-03-28 13:35:00,61.1,47.1,30.06,South,180,1.0,-999.0,60,0.00,,,0.00,488,Wunderground v.1.15,2013-03-28 20:35:00,
2013-03-28 13:40:00,61.3,47.3,30.06,SW,225,1.0,-999.0,60,0.00,,,0.00,414,Wunderground v.1.15,2013-03-28 20:40:00,
2013-03-28 13:43:00,61.1,47.0,30.06,SW,219,0.0,3.0,60,0.00,,,0.00,353,weatherlink.com 1.10,2013-03-28 20:43:00,
2013-03-28 13:45:00,61.3,47.3,30.06,SW,225,1.0,-999.0,60,0.00,,,0.00,414,Wunderground v.1.15,2013-03-28 20:45:00,
2013-03-28 13:50:00,61.3,47.3,30.06,SW,225,1.0,-999.0,60,0.00,,,0.00,414,Wunderground v.1.15,2013-03-28 20:50:00,
2013-03-28 13:55:00,61.9,46.5,30.06,South,180,1.0,-999.0,57,0.00,,,0.00,757,Wunderground v.1.15,2013-03-28 20:55:00,
2013-03-28 13:58:00,62.3,47.0,30.06,SSW,201,1.0,3.0,58,0.00,,,0.00,812,weatherlink.com 1.10,2013-03-28 20:58:00,
2013-03-28 14:00:00,61.9,46.5,30.06,South,180,1.0,-999.0,57,0.00,,,0.00,757,Wunderground v.1.15,2013-03-28 21:00:00,
2013-03-28 14:05:00,61.9,46.5,30.06,South,180,1.0,-999.0,57,0.00,,,0.00,757,Wunderground v.1.15,2013-03-28 21:05:00,
2013-03-28 14:10:00,62.6,47.6,30.06,ESE,113,2.0,-999.0,58,0.00,,,0.00,816,Wunderground v.1.15,2013-03-28 21:10:00,
2013-03-28 14:13:00,62.8,47.0,30.06,SSE,161,2.0,7.0,57,0.00,,,0.00,846,weatherlink.com 1.10,2013-03-28 21:13:00,
2013-03-28 14:15:00,62.6,47.6,30.06,ESE,113,2.0,-999.0,58,0.00,,,0.00,816,Wunderground v.1.15,2013-03-28 21:15:00,
2013-03-28 14:20:00,62.6,47.6,30.06,ESE,113,2.0,-999.0,58,0.00,,,0.00,816,Wunderground v.1.15,2013-03-28 21:20:00,
2013-03-28 14:25:00,63.2,47.7,30.05,WNW,293,3.0,-999.0,57,0.00,,,0.00,824,Wunderground v.1.15,2013-03-28 21:25:00,
2013-03-28 14:28:00,63.1,46.0,30.05,West,273,3.0,5.0,55,0.00,,,0.00,466,weatherlink.com 1.10,2013-03-28 21:28:00,
2013-03-28 14:30:00,63.2,47.7,30.05,WNW,293,3.0,-999.0,57,0.00,,,0.00,824,Wunderground v.1.15,2013-03-28 21:30:00,
2013-03-28 14:35:00,63.2,47.7,30.05,WNW,293,3.0,-999.0,57,0.00,,,0.00,824,Wunderground v.1.15,2013-03-28 21:35:00,
2013-03-28 14:40:00,61.3,49.8,30.06,WNW,293,3.0,-999.0,66,0.00,,,0.00,281,Wunderground v.1.15,2013-03-28 21:40:00,
2013-03-28 14:43:00,60.4,49.0,30.05,WNW,295,1.0,6.0,66,0.00,,,0.00,237,weatherlink.com 1.10,2013-03-28 21:43:00,
2013-03-28 14:45:00,61.3,49.8,30.06,WNW,293,3.0,-999.0,66,0.00,,,0.00,281,Wunderground v.1.15,2013-03-28 21:45:00,
2013-03-28 14:50:00,61.3,49.8,30.06,WNW,293,3.0,-999.0,66,0.00,,,0.00,281,Wunderground v.1.15,2013-03-28 21:50:00,
2013-03-28 14:55:00,60.1,48.7,30.05,WSW,248,4.0,-999.0,66,0.00,,,0.00,839,Wunderground v.1.15,2013-03-28 21:55:00,
2013-03-28 14:58:00,60.6,49.0,30.06,West,271,4.0,8.0,66,0.00,,,0.00,817,weatherlink.com 1.10,2013-03-28 21:58:00,
2013-03-28 15:00:00,60.1,48.7,30.05,WSW,248,4.0,-999.0,66,0.00,,,0.00,839,Wunderground v.1.15,2013-03-28 22:00:00,
2013-03-28 15:05:00,60.1,48.7,30.05,WSW,248,4.0,-999.0,66,0.00,,,0.00,839,Wunderground v.1.15,2013-03-28 22:05:00,
2013-03-28 15:10:00,59.6,49.0,30.05,WNW,293,4.0,-999.0,68,0.00,,,0.00,654,Wunderground v.1.15,2013-03-28 22:10:00,
2013-03-28 15:13:00,59.3,49.0,30.05,WNW,291,5.0,8.0,68,0.00,,,0.00,636,weatherlink.com 1.10,2013-03-28 22:13:00,
2013-03-28 15:15:00,59.6,49.0,30.05,WNW,293,4.0,-999.0,68,0.00,,,0.00,654,Wunderground v.1.15,2013-03-28 22:15:00,
2013-03-28 15:20:00,59.6,49.0,30.05,WNW,293,4.0,-999.0,68,0.00,,,0.00,654,Wunderground v.1.15,2013-03-28 22:20:00,
2013-03-28 15:25:00,59.6,49.4,30.05,WNW,293,3.0,-999.0,69,0.00,,,0.00,595,Wunderground v.1.15,2013-03-28 22:25:00,
2013-03-28 15:28:00,59.4,50.0,30.05,West,269,2.0,8.0,70,0.00,,,0.00,578,weatherlink.com 1.10,2013-03-28 22:28:00,
2013-03-28 15:30:00,59.6,49.4,30.05,WNW,293,3.0,-999.0,69,0.00,,,0.00,595,Wunderground v.1.15,2013-03-28 22:30:00,
2013-03-28 15:35:00,59.6,49.4,30.05,WNW,293,3.0,-999.0,69,0.00,,,0.00,595,Wunderground v.1.15,2013-03-28 22:35:00,
2013-03-28 15:40:00,59.4,48.8,30.05,WNW,293,4.0,-999.0,68,0.00,,,0.00,554,Wunderground v.1.15,2013-03-28 22:40:00,
2013-03-28 15:43:00,59.3,48.0,30.05,NNW,337,5.0,7.0,67,0.00,,,0.00,545,weatherlink.com 1.10,2013-03-28 22:43:00,
2013-03-28 15:45:00,59.4,48.8,30.05,WNW,293,4.0,-999.0,68,0.00,,,0.00,554,Wunderground v.1.15,2013-03-28 22:45:00,
2013-03-28 15:50:00,59.4,48.8,30.05,WNW,293,4.0,-999.0,68,0.00,,,0.00,554,Wunderground v.1.15,2013-03-28 22:50:00,
2013-03-28 15:55:00,60.2,48.8,30.05,WNW,293,2.0,-999.0,66,0.00,,,0.00,520,Wunderground v.1.15,2013-03-28 22:55:00,
2013-03-28 15:58:00,60.7,49.0,30.05,NE,52,0.0,7.0,65,0.00,,,0.00,468,weatherlink.com 1.10,2013-03-28 22:58:00,
2013-03-28 16:00:00,60.2,48.8,30.05,WNW,293,2.0,-999.0,66,0.00,,,0.00,520,Wunderground v.1.15,2013-03-28 23:00:00,
2013-03-28 16:05:00,60.2,48.8,30.05,WNW,293,2.0,-999.0,66,0.00,,,0.00,520,Wunderground v.1.15,2013-03-28 23:05:00,
2013-03-28 16:10:00,61.6,48.4,30.05,West,270,2.0,-999.0,62,0.00,,,0.00,420,Wunderground v.1.15,2013-03-28 23:10:00,
2013-03-28 16:13:00,61.9,49.0,30.05,NNW,336,1.0,6.0,63,0.00,,,0.00,448,weatherlink.com 1.10,2013-03-28 23:13:00,
2013-03-28 16:15:00,61.6,48.4,30.05,West,270,2.0,-999.0,62,0.00,,,0.00,420,Wunderground v.1.15,2013-03-28 23:15:00,
2013-03-28 16:20:00,61.6,48.4,30.05,West,270,2.0,-999.0,62,0.00,,,0.00,420,Wunderground v.1.15,2013-03-28 23:20:00,
2013-03-28 16:25:00,61.3,48.2,30.05,West,270,2.0,-999.0,62,0.00,,,0.00,349,Wunderground v.1.15,2013-03-28 23:25:00,
2013-03-28 16:28:00,61.4,49.0,30.05,West,259,3.0,6.0,65,0.00,,,0.00,253,weatherlink.com 1.10,2013-03-28 23:28:00,
2013-03-28 16:30:00,61.3,48.2,30.05,West,270,2.0,-999.0,62,0.00,,,0.00,349,Wunderground v.1.15,2013-03-28 23:30:00,
2013-03-28 16:35:00,61.3,48.2,30.05,West,270,2.0,-999.0,62,0.00,,,0.00,349,Wunderground v.1.15,2013-03-28 23:35:00,
2013-03-28 16:40:00,61.1,48.4,30.05,WNW,293,2.0,-999.0,63,0.00,,,0.00,185,Wunderground v.1.15,2013-03-28 23:40:00,
2013-03-28 16:43:00,60.5,48.0,30.05,WNW,288,1.0,7.0,63,0.00,,,0.00,128,weatherlink.com 1.10,2013-03-28 23:43:00,
2013-03-28 16:45:00,61.1,48.4,30.05,WNW,293,2.0,-999.0,63,0.00,,,0.00,185,Wunderground v.1.15,2013-03-28 23:45:00,
2013-03-28 16:50:00,61.1,48.4,30.05,WNW,293,2.0,-999.0,63,0.00,,,0.00,185,Wunderground v.1.15,2013-03-28 23:50:00,
2013-03-28 16:55:00,60.0,46.5,30.05,WNW,293,2.0,-999.0,61,0.00,,,0.00,153,Wunderground v.1.15,2013-03-28 23:55:00,
2013-03-28 16:58:00,60.0,47.0,30.05,WNW,294,2.0,5.0,62,0.00,,,0.00,179,weatherlink.com 1.10,2013-03-28 23:58:00,
2013-03-28 17:00:00,60.0,46.5,30.05,WNW,293,2.0,-999.0,61,0.00,,,0.00,153,Wunderground v.1.15,2013-03-29 00:00:00,
2013-03-28 17:05:00,60.0,46.5,30.05,WNW,293,2.0,-999.0,61,0.00,,,0.00,153,Wunderground v.1.15,2013-03-29 00:05:00,
2013-03-28 17:10:00,59.8,45.9,30.05,NW,315,2.0,-999.0,60,0.00,,,0.00,155,Wunderground v.1.15,2013-03-29 00:10:00,
2013-03-28 17:13:00,59.8,46.0,30.05,NW,309,2.0,5.0,60,0.00,,,0.00,132,weatherlink.com 1.10,2013-03-29 00:13:00,
2013-03-28 17:15:00,59.8,45.9,30.05,NW,315,2.0,-999.0,60,0.00,,,0.00,155,Wunderground v.1.15,2013-03-29 00:15:00,
2013-03-28 17:20:00,59.8,45.9,30.05,NW,315,2.0,-999.0,60,0.00,,,0.00,155,Wunderground v.1.15,2013-03-29 00:20:00,
2013-03-28 17:25:00,59.7,46.7,30.05,WNW,293,2.0,-999.0,62,0.00,,,0.00,117,Wunderground v.1.15,2013-03-29 00:25:00,
2013-03-28 17:28:00,59.6,47.0,30.05,WNW,294,3.0,5.0,63,0.00,,,0.00,111,weatherlink.com 1.10,2013-03-29 00:28:00,
2013-03-28 17:30:00,59.7,46.7,30.05,WNW,293,2.0,-999.0,62,0.00,,,0.00,117,Wunderground v.1.15,2013-03-29 00:30:00,
2013-03-28 17:35:00,59.7,46.7,30.05,WNW,293,2.0,-999.0,62,0.00,,,0.00,117,Wunderground v.1.15,2013-03-29 00:35:00,
2013-03-28 17:40:00,59.0,45.6,30.05,WNW,293,3.0,-999.0,61,0.00,,,0.00,88,Wunderground v.1.15,2013-03-29 00:40:00,
2013-03-28 17:43:00,58.7,45.0,30.05,WNW,284,2.0,6.0,61,0.00,,,0.00,83,weatherlink.com 1.10,2013-03-29 00:43:00,
2013-03-28 17:45:00,59.0,45.6,30.05,WNW,293,3.0,-999.0,61,0.00,,,0.00,88,Wunderground v.1.15,2013-03-29 00:45:00,
2013-03-28 17:50:00,59.0,45.6,30.05,WNW,293,3.0,-999.0,61,0.00,,,0.00,88,Wunderground v.1.15,2013-03-29 00:50:00,
2013-03-28 17:55:00,58.5,45.1,30.05,WNW,293,2.0,-999.0,61,0.00,,,0.00,130,Wunderground v.1.15,2013-03-29 00:55:00,
2013-03-28 17:58:00,58.6,46.0,30.05,WNW,292,2.0,4.0,63,0.00,,,0.00,200,weatherlink.com 1.10,2013-03-29 00:58:00,
2013-03-28 18:00:00,58.5,45.1,30.05,WNW,293,2.0,-999.0,61,0.00,,,0.00,130,Wunderground v.1.15,2013-03-29 01:00:00,
2013-03-28 18:05:00,58.5,45.1,30.05,WNW,293,2.0,-999.0,61,0.00,,,0.00,130,Wunderground v.1.15,2013-03-29 01:05:00,
2013-03-28 18:10:00,59.6,45.2,30.05,WNW,293,2.0,-999.0,59,0.00,,,0.00,161,Wunderground v.1.15,2013-03-29 01:10:00,
2013-03-28 18:13:00,59.8,45.0,30.05,NNW,340,2.0,6.0,59,0.00,,,0.00,186,weatherlink.com 1.10,2013-03-29 01:13:00,
2013-03-28 18:15:00,59.6,45.2,30.05,WNW,293,2.0,-999.0,59,0.00,,,0.00,161,Wunderground v.1.15,2013-03-29 01:15:00,
2013-03-28 18:20:00,59.6,45.2,30.05,WNW,293,2.0,-999.0,59,0.00,,,0.00,161,Wunderground v.1.15,2013-03-29 01:20:00,
2013-03-28 18:25:00,60.0,45.6,30.05,WNW,293,2.0,-999.0,59,0.00,,,0.00,116,Wunderground v.1.15,2013-03-29 01:25:00,
2013-03-28 18:30:00,60.0,45.6,30.05,WNW,293,2.0,-999.0,59,0.00,,,0.00,116,Wunderground v.1.15,2013-03-29 01:30:00,
2013-03-28 18:35:00,60.0,45.6,30.05,WNW,293,2.0,-999.0,59,0.00,,,0.00,116,Wunderground v.1.15,2013-03-29 01:35:00,
2013-03-28 18:40:00,59.7,46.2,30.05,WNW,293,2.0,-999.0,61,0.00,,,0.00,90,Wunderground v.1.15,2013-03-29 01:40:00,
2013-03-28 18:43:00,59.5,46.0,30.05,WNW,286,1.0,5.0,62,0.00,,,0.00,81,weatherlink.com 1.10,2013-03-29 01:43:00,
2013-03-28 18:45:00,59.7,46.2,30.05,WNW,293,2.0,-999.0,61,0.00,,,0.00,90,Wunderground v.1.15,2013-03-29 01:45:00,
2013-03-28 18:50:00,59.7,46.2,30.05,WNW,293,2.0,-999.0,61,0.00,,,0.00,90,Wunderground v.1.15,2013-03-29 01:50:00,
2013-03-28 18:55:00,59.0,46.4,30.05,WNW,293,2.0,-999.0,63,0.00,,,0.00,48,Wunderground v.1.15,2013-03-29 01:55:00,
2013-03-28 18:58:00,58.8,46.0,30.05,WNW,286,1.0,5.0,62,0.00,,,0.00,37,weatherlink.com 1.10,2013-03-29 01:58:00,
2013-03-28 19:00:00,59.0,46.4,30.05,WNW,293,2.0,-999.0,63,0.00,,,0.00,48,Wunderground v.1.15,2013-03-29 02:00:00,
2013-03-28 19:05:00,59.0,46.4,30.05,WNW,293,2.0,-999.0,63,0.00,,,0.00,48,Wunderground v.1.15,2013-03-29 02:05:00,
2013-03-28 19:10:00,58.3,46.2,30.06,WNW,293,2.0,-999.0,64,0.00,,,0.00,22,Wunderground v.1.15,2013-03-29 02:10:00,
2013-03-28 19:13:00,58.1,46.0,30.05,WNW,292,1.0,4.0,64,0.00,,,0.00,16,weatherlink.com 1.10,2013-03-29 02:13:00,
2013-03-28 19:15:00,58.3,46.2,30.06,WNW,293,2.0,-999.0,64,0.00,,,0.00,22,Wunderground v.1.15,2013-03-29 02:15:00,
2013-03-28 19:20:00,58.3,46.2,30.06,WNW,293,2.0,-999.0,64,0.00,,,0.00,22,Wunderground v.1.15,2013-03-29 02:20:00,
2013-03-28 19:25:00,57.5,46.2,30.06,NW,315,1.0,-999.0,66,0.00,,,0.00,8,Wunderground v.1.15,2013-03-29 02:25:00,
2013-03-28 19:28:00,57.2,46.0,30.06,NW,315,2.0,2.0,66,0.00,,,0.00,5,weatherlink.com 1.10,2013-03-29 02:28:00,
2013-03-28 19:30:00,57.5,46.2,30.06,NW,315,1.0,-999.0,66,0.00,,,0.00,8,Wunderground v.1.15,2013-03-29 02:30:00,
2013-03-28 19:35:00,57.5,46.2,30.06,NW,315,1.0,-999.0,66,0.00,,,0.00,8,Wunderground v.1.15,2013-03-29 02:35:00,
2013-03-28 19:40:00,56.8,46.3,30.07,WNW,293,1.0,-999.0,68,0.00,,,0.00,0,Wunderground v.1.15,2013-03-29 02:40:00,
2013-03-28 19:43:00,56.6,46.0,30.06,WNW,285,2.0,4.0,68,0.00,,,0.00,0,weatherlink.com 1.10,2013-03-29 02:43:00,
2013-03-28 19:45:00,56.8,46.3,30.07,WNW,293,1.0,-999.0,68,0.00,,,0.00,0,Wunderground v.1.15,2013-03-29 02:45:00,
2013-03-28 19:50:00,56.8,46.3,30.07,WNW,293,1.0,-999.0,68,0.00,,,0.00,0,Wunderground v.1.15,2013-03-29 02:50:00,
2013-03-28 19:55:00,56.2,46.5,30.07,WNW,293,1.0,-999.0,70,0.00,,,0.00,0,Wunderground v.1.15,2013-03-29 02:55:00,
2013-03-28 19:58:00,56.0,46.0,30.07,WNW,298,0.0,4.0,70,0.00,,,0.00,0,weatherlink.com 1.10,2013-03-29 02:58:00,
2013-03-28 20:00:00,56.2,46.5,30.07,WNW,293,1.0,-999.0,70,0.00,,,0.00,0,Wunderground v.1.15,2013-03-29 03:00:00,
2013-03-28 20:05:00,56.2,46.5,30.07,WNW,293,1.0,-999.0,70,0.00,,,0.00,0,Wunderground v.1.15,2013-03-29 03:05:00,
2013-03-28 20:10:00,55.4,46.2,30.08,WNW,293,1.0,-999.0,71,0.00,,,0.00,0,Wunderground v.1.15,2013-03-29 03:10:00,
2013-03-28 20:13:00,55.1,46.0,30.07,West,280,0.0,4.0,71,0.00,,,0.00,0,weatherlink.com 1.10,2013-03-29 03:13:00,
2013-03-28 20:15:00,55.4,46.2,30.08,WNW,293,1.0,-999.0,71,0.00,,,0.00,0,Wunderground v.1.15,2013-03-29 03:15:00,
2013-03-28 20:20:00,55.4,46.2,30.08,WNW,293,1.0,-999.0,71,0.00,,,0.00,0,Wunderground v.1.15,2013-03-29 03:20:00,
2013-03-28 20:25:00,54.8,46.7,30.08,SE,135,0.0,-999.0,74,0.00,,,0.00,0,Wunderground v.1.15,2013-03-29 03:25:00,
2013-03-28 20:28:00,54.6,46.0,30.08,SE,124,0.0,2.0,74,0.00,,,0.00,0,weatherlink.com 1.10,2013-03-29 03:28:00,
2013-03-28 20:30:00,54.8,46.7,30.08,SE,135,0.0,-999.0,74,0.00,,,0.00,0,Wunderground v.1.15,2013-03-29 03:30:00,
2013-03-28 20:35:00,54.8,46.7,30.08,SE,135,0.0,-999.0,74,0.00,,,0.00,0,Wunderground v.1.15,2013-03-29 03:35:00,
2013-03-28 20:40:00,54.3,46.2,30.09,West,270,1.0,-999.0,74,0.00,,,0.00,0,Wunderground v.1.15,2013-03-29 03:40:00,
2013-03-28 20:43:00,54.3,46.0,30.09,West,281,2.0,3.0,74,0.00,,,0.00,0,weatherlink.com 1.10,2013-03-29 03:43:00,
2013-03-28 20:45:00,54.3,46.2,30.09,West,270,1.0,-999.0,74,0.00,,,0.00,0,Wunderground v.1.15,2013-03-29 03:45:00,
2013-03-28 20:50:00,54.3,46.2,30.09,West,270,1.0,-999.0,74,0.00,,,0.00,0,Wunderground v.1.15,2013-03-29 03:50:00,
2013-03-28 20:55:00,54.3,46.9,30.09,WNW,293,2.0,-999.0,76,0.00,,,0.00,0,Wunderground v.1.15,2013-03-29 03:55:00,
2013-03-28 20:58:00,54.2,46.0,30.09,WNW,284,2.0,4.0,75,0.00,,,0.00,0,weatherlink.com 1.10,2013-03-29 03:58:00,
2013-03-28 21:00:00,54.3,46.9,30.09,WNW,293,2.0,-999.0,76,0.00,,,0.00,0,Wunderground v.1.15,2013-03-29 04:00:00,
2013-03-28 21:05:00,54.3,46.9,30.09,WNW,293,2.0,-999.0,76,0.00,,,0.00,0,Wunderground v.1.15,2013-03-29 04:05:00,
2013-03-28 21:10:00,53.8,47.1,30.10,WNW,293,1.0,-999.0,78,0.00,,,0.00,0,Wunderground v.1.15,2013-03-29 04:10:00,
2013-03-28 21:13:00,53.6,47.0,30.09,WNW,291,0.0,5.0,77,0.00,,,0.00,0,weatherlink.com 1.10,2013-03-29 04:13:00,
2013-03-28 21:15:00,53.8,47.1,30.10,WNW,293,1.0,-999.0,78,0.00,,,0.00,0,Wunderground v.1.15,2013-03-29 04:15:00,
2013-03-28 21:20:00,53.8,47.1,30.10,WNW,293,1.0,-999.0,78,0.00,,,0.00,0,Wunderground v.1.15,2013-03-29 04:20:00,
2013-03-28 21:25:00,53.5,47.8,30.11,WNW,293,0.0,-999.0,81,0.00,,,0.00,0,Wunderground v.1.15,2013-03-29 04:25:00,
2013-03-28 21:28:00,53.4,48.0,30.10,WNW,289,0.0,1.0,81,0.00,,,0.00,0,weatherlink.com 1.10,2013-03-29 04:28:00,
2013-03-28 21:30:00,53.5,47.8,30.11,WNW,293,0.0,-999.0,81,0.00,,,0.00,0,Wunderground v.1.15,2013-03-29 04:30:00,
2013-03-28 21:35:00,53.5,47.8,30.11,WNW,293,0.0,-999.0,81,0.00,,,0.00,0,Wunderground v.1.15,2013-03-29 04:35:00,
2013-03-28 21:40:00,53.2,47.5,30.11,N/A,-737280,0.0,-999.0,81,0.00,,,0.00,0,Wunderground v.1.15,2013-03-29 04:40:00,
2013-03-28 21:43:00,53.0,47.0,30.11,WNW,289,0.0,0.0,81,0.00,,,0.00,0,weatherlink.com 1.10,2013-03-29 04:43:00,
2013-03-28 21:45:00,53.2,47.5,30.11,N/A,-737280,0.0,-999.0,81,0.00,,,0.00,0,Wunderground v.1.15,2013-03-29 04:45:00,
2013-03-28 21:50:00,53.2,47.5,30.11,N/A,-737280,0.0,-999.0,81,0.00,,,0.00,0,Wunderground v.1.15,2013-03-29 04:50:00,
2013-03-28 21:55:00,52.6,48.5,30.11,East,90,1.0,-999.0,86,0.00,,,0.00,0,Wunderground v.1.15,2013-03-29 04:55:00,
2013-03-28 21:58:00,52.3,48.0,30.11,East,84,1.0,3.0,85,0.00,,,0.00,0,weatherlink.com 1.10,2013-03-29 04:58:00,
2013-03-28 22:00:00,52.6,48.5,30.11,East,90,1.0,-999.0,86,0.00,,,0.00,0,Wunderground v.1.15,2013-03-29 05:00:00,
2013-03-28 22:05:00,52.6,48.5,30.11,East,90,1.0,-999.0,86,0.00,,,0.00,0,Wunderground v.1.15,2013-03-29 05:05:00,
2013-03-28 22:10:00,51.6,48.2,30.11,East,90,0.0,-999.0,88,0.00,,,0.00,0,Wunderground v.1.15,2013-03-29 05:10:00,
2013-03-28 22:13:00,51.3,48.0,30.11,East,84,0.0,1.0,87,0.00,,,0.00,0,weatherlink.com 1.10,2013-03-29 05:13:00,
2013-03-28 22:15:00,51.6,48.2,30.11,East,90,0.0,-999.0,88,0.00,,,0.00,0,Wunderground v.1.15,2013-03-29 05:15:00,
2013-03-28 22:20:00,51.6,48.2,30.11,East,90,0.0,-999.0,88,0.00,,,0.00,0,Wunderground v.1.15,2013-03-29 05:20:00,
2013-03-28 22:25:00,50.7,47.6,30.12,East,90,0.0,-999.0,89,0.00,,,0.00,0,Wunderground v.1.15,2013-03-29 05:25:00,
2013-03-28 22:28:00,50.5,47.0,30.11,East,91,3.0,3.0,89,0.00,,,0.00,0,weatherlink.com 1.10,2013-03-29 05:28:00,
2013-03-28 22:30:00,50.7,47.6,30.12,East,90,0.0,-999.0,89,0.00,,,0.00,0,Wunderground v.1.15,2013-03-29 05:30:00,
2013-03-28 22:35:00,50.7,47.6,30.12,East,90,0.0,-999.0,89,0.00,,,0.00,0,Wunderground v.1.15,2013-03-29 05:35:00,
2013-03-28 22:40:00,50.2,47.4,30.12,East,90,0.0,-999.0,90,0.00,,,0.00,0,Wunderground v.1.15,2013-03-29 05:40:00,
2013-03-28 22:43:00,50.0,47.0,30.12,East,92,0.0,0.0,90,0.00,,,0.00,0,weatherlink.com 1.10,2013-03-29 05:43:00,
2013-03-28 22:45:00,50.2,47.4,30.12,East,90,0.0,-999.0,90,0.00,,,0.00,0,Wunderground v.1.15,2013-03-29 05:45:00,
2013-03-28 22:50:00,50.2,47.4,30.12,East,90,0.0,-999.0,90,0.00,,,0.00,0,Wunderground v.1.15,2013-03-29 05:50:00,
2013-03-28 22:55:00,49.7,47.2,30.12,N/A,-737280,0.0,-999.0,91,0.00,,,0.00,0,Wunderground v.1.15,2013-03-29 05:55:00,
2013-03-28 22:58:00,49.6,47.0,30.12,East,92,0.0,0.0,91,0.00,,,0.00,0,weatherlink.com 1.10,2013-03-29 05:58:00,
2013-03-28 23:00:00,49.7,47.2,30.12,N/A,-737280,0.0,-999.0,91,0.00,,,0.00,0,Wunderground v.1.15,2013-03-29 06:00:00,
2013-03-28 23:05:00,49.7,47.2,30.12,N/A,-737280,0.0,-999.0,91,0.00,,,0.00,0,Wunderground v.1.15,2013-03-29 06:05:00,
2013-03-28 23:10:00,49.3,46.8,30.12,N/A,-737280,0.0,-999.0,91,0.00,,,0.00,0,Wunderground v.1.15,2013-03-29 06:10:00,
2013-03-28 23:13:00,49.2,47.0,30.12,East,92,0.0,0.0,91,0.00,,,0.00,0,weatherlink.com 1.10,2013-03-29 06:13:00,
2013-03-28 23:15:00,49.3,46.8,30.12,N/A,-737280,0.0,-999.0,91,0.00,,,0.00,0,Wunderground v.1.15,2013-03-29 06:15:00,
2013-03-28 23:20:00,49.3,46.8,30.12,N/A,-737280,0.0,-999.0,91,0.00,,,0.00,0,Wunderground v.1.15,2013-03-29 06:20:00,
2013-03-28 23:25:00,48.7,46.8,30.13,East,90,0.0,-999.0,93,0.00,,,0.00,0,Wunderground v.1.15,2013-03-29 06:25:00,
2013-03-28 23:28:00,48.6,46.0,30.12,East,92,0.0,2.0,92,0.00,,,0.00,0,weatherlink.com 1.10,2013-03-29 06:28:00,
2013-03-28 23:30:00,48.7,46.8,30.13,East,90,0.0,-999.0,93,0.00,,,0.00,0,Wunderground v.1.15,2013-03-29 06:30:00,
2013-03-28 23:35:00,48.7,46.8,30.13,East,90,0.0,-999.0,93,0.00,,,0.00,0,Wunderground v.1.15,2013-03-29 06:35:00,
2013-03-28 23:40:00,48.3,46.1,30.14,East,90,0.0,-999.0,92,0.00,,,0.00,0,Wunderground v.1.15,2013-03-29 06:40:00,
2013-03-28 23:43:00,48.2,46.0,30.13,East,92,0.0,0.0,92,0.00,,,0.00,0,weatherlink.com 1.10,2013-03-29 06:43:00,
2013-03-28 23:45:00,48.3,46.1,30.14,East,90,0.0,-999.0,92,0.00,,,0.00,0,Wunderground v.1.15,2013-03-29 06:45:00,
2013-03-28 23:50:00,48.3,46.1,30.14,East,90,0.0,-999.0,92,0.00,,,0.00,0,Wunderground v.1.15,2013-03-29 06:50:00,
2013-03-28 23:55:00,47.8,45.9,30.14,East,90,0.0,-999.0,93,0.00,,,0.00,0,Wunderground v.1.15,2013-03-29 06:55:00,
2013-03-28 23:58:00,47.6,45.0,30.14,East,92,0.0,1.0,92,0.00,,,0.00,0,weatherlink.com 1.10,2013-03-29 06:58:00,